Terminal Aerodrome Forecast
Issued by NWS

Home | Current Version | Previous Version | Text Only | Print | Product List | Glossary On
Versions: 1 2 3 4 5 6 7 8 9 10 11 12 13 14 15 16
000
FTUS42 KTBW 191736
TAFLAL
TAF
KLAL 191736Z 1918/2018 23005KT P6SM SCT040 SCT250
     FM200200 VRB02KT P6SM SCT250
     FM200700 00000KT 3SM BR SCT005 SCT100 BKN250
      TEMPO 2009/2013 1/2SM FG BKN005
     FM201300 19006KT P6SM SCT015 BKN100 BKN250=

USA.gov is the U.S. government's official web portal to all federal, state and local government web resources and services.